createdAt,value
2019-03-16T00:02:03.326Z,15.77
2019-03-16T00:04:50.239Z,12.53
2019-03-16T00:07:37.172Z,8.03
2019-03-16T00:10:25.498Z,6.67
2019-03-16T00:13:12.055Z,9.23
2019-03-16T00:16:05.342Z,6.90
2019-03-16T00:18:53.897Z,10.67
2019-03-16T00:21:40.975Z,11.70
2019-03-16T00:24:28.135Z,10.53
2019-03-16T00:27:14.598Z,14.73
2019-03-16T00:30:01.321Z,12.43
2019-03-16T00:32:48.326Z,8.60
2019-03-16T00:35:36.870Z,11.40
2019-03-16T00:38:23.738Z,10.93
2019-03-16T00:41:12.442Z,11.23
2019-03-16T00:43:59.194Z,8.77
2019-03-16T00:46:49.781Z,8.13
2019-03-16T00:49:36.622Z,12.63
2019-03-16T00:52:23.601Z,12.07
2019-03-16T00:55:13.045Z,11.97
2019-03-16T00:58:01.800Z,13.20
2019-03-16T01:00:48.309Z,6.90
2019-03-16T01:03:36.258Z,11.07
2019-03-16T01:06:22.730Z,11.53
2019-03-16T01:09:09.310Z,9.77
2019-03-16T01:11:56.030Z,9.43
2019-03-16T01:14:43.356Z,14.73
2019-03-16T01:17:33.471Z,13.80
2019-03-16T01:20:20.794Z,13.63
2019-03-16T01:23:09.815Z,11.07
2019-03-16T01:25:56.933Z,12.83
2019-03-16T01:28:44.525Z,12.27
2019-03-16T01:31:32.122Z,11.80
2019-03-16T01:34:21.122Z,12.13
2019-03-16T01:37:07.587Z,9.73
2019-03-16T01:39:54.719Z,13.50
2019-03-16T01:42:43.666Z,9.67
2019-03-16T01:45:29.982Z,10.80
2019-03-16T01:48:17.751Z,11.97
2019-03-16T01:51:04.082Z,9.37
2019-03-16T01:53:51.126Z,13.53
2019-03-16T01:56:38.350Z,8.37
2019-03-16T01:59:24.957Z,9.90
2019-03-16T02:02:11.418Z,12.87
2019-03-16T02:04:58.382Z,11.03
2019-03-16T02:07:44.907Z,17.30
2019-03-16T02:10:34.438Z,9.93
2019-03-16T02:13:21.509Z,10.63
2019-03-16T02:16:11.175Z,7.67
2019-03-16T02:18:56.941Z,10.57
2019-03-16T02:21:44.786Z,13.47
2019-03-16T02:24:31.514Z,14.47
2019-03-16T02:27:18.058Z,15.13
2019-03-16T02:30:05.472Z,11.83
2019-03-16T02:32:52.177Z,11.63
2019-03-16T02:35:38.797Z,13.30
2019-03-16T02:38:26.065Z,12.53
2019-03-16T02:41:12.833Z,15.97
2019-03-16T02:43:59.585Z,13.90
2019-03-16T02:46:46.477Z,16.73
2019-03-16T02:49:33.372Z,10.97
2019-03-16T02:52:20.549Z,17.87
2019-03-16T02:55:07.619Z,14.30
2019-03-16T02:57:54.994Z,11.47
2019-03-16T03:00:41.718Z,10.10
2019-03-16T03:03:30.173Z,18.00
2019-03-16T03:06:17.196Z,11.90
2019-03-16T03:09:07.033Z,11.17
2019-03-16T03:11:53.991Z,13.97
2019-03-16T03:14:40.940Z,14.77
2019-03-16T03:17:27.787Z,15.60
2019-03-16T03:20:14.208Z,12.60
2019-03-16T03:23:01.174Z,13.53
2019-03-16T03:25:47.712Z,15.37
2019-03-16T03:28:34.295Z,14.63
2019-03-16T03:31:21.038Z,12.43
2019-03-16T03:34:07.807Z,10.93
2019-03-16T03:36:54.505Z,13.90
2019-03-16T03:39:41.609Z,15.60
2019-03-16T03:42:28.096Z,17.30
2019-03-16T03:45:15.113Z,14.63
2019-03-16T03:48:02.252Z,10.77
2019-03-16T03:50:51.175Z,15.43
2019-03-16T03:53:41.073Z,16.27
2019-03-16T03:56:27.738Z,12.90
2019-03-16T03:59:14.731Z,16.90
2019-03-16T04:02:02.303Z,16.00
2019-03-16T04:04:49.175Z,10.80
2019-03-16T04:07:35.874Z,18.83
2019-03-16T04:10:22.854Z,10.00
2019-03-16T04:13:09.755Z,13.07
2019-03-16T04:15:57.554Z,17.33
2019-03-16T04:18:44.963Z,13.20
2019-03-16T04:21:32.267Z,6.53
2019-03-16T04:24:18.920Z,9.10
2019-03-16T04:27:16.022Z,10.03
2019-03-16T04:29:54.117Z,11.13
2019-03-16T04:32:40.802Z,10.80
2019-03-16T04:35:28.132Z,10.67
2019-03-16T04:38:15.296Z,10.37
2019-03-16T04:41:02.211Z,10.50
2019-03-16T04:43:49.132Z,5.13
2019-03-16T04:46:36.270Z,7.60
2019-03-16T04:49:22.595Z,6.87
2019-03-16T04:52:09.596Z,7.53
2019-03-16T04:54:56.147Z,11.10
2019-03-16T04:57:43.054Z,8.07
2019-03-16T05:00:30.578Z,7.40
2019-03-16T05:03:18.356Z,8.67
2019-03-16T05:06:04.850Z,7.50
2019-03-16T05:08:52.183Z,5.20
2019-03-16T05:11:38.607Z,8.60
2019-03-16T05:14:25.452Z,7.73
2019-03-16T05:17:12.417Z,5.60
2019-03-16T05:19:59.239Z,8.23
2019-03-16T05:22:45.686Z,8.83
2019-03-16T05:25:32.549Z,7.97
2019-03-16T05:28:19.279Z,6.60
2019-03-16T05:31:06.404Z,8.93
2019-03-16T05:33:53.329Z,9.27
2019-03-16T05:36:40.271Z,5.90
2019-03-16T05:39:34.748Z,6.13
2019-03-16T05:42:21.219Z,10.17
2019-03-16T05:45:08.245Z,8.07
2019-03-16T05:47:55.435Z,11.90
2019-03-16T05:50:42.047Z,9.47
2019-03-16T05:53:28.830Z,8.20
2019-03-16T05:56:15.586Z,7.37
2019-03-16T05:59:05.411Z,7.70
2019-03-16T06:01:52.503Z,12.97
2019-03-16T06:04:39.667Z,11.27
2019-03-16T06:07:26.356Z,8.17
2019-03-16T06:10:17.462Z,7.53
2019-03-16T06:13:05.640Z,8.27
2019-03-16T06:15:53.499Z,10.07
2019-03-16T06:18:40.365Z,10.07
2019-03-16T06:21:26.800Z,12.13
2019-03-16T06:24:12.897Z,7.97
2019-03-16T06:27:00.337Z,11.53
2019-03-16T06:29:46.748Z,8.90
2019-03-16T06:32:33.760Z,11.17
2019-03-16T06:35:24.931Z,8.67
2019-03-16T06:38:10.086Z,13.93
2019-03-16T06:40:57.303Z,14.83
2019-03-16T06:43:48.440Z,6.77
2019-03-16T06:46:35.000Z,15.30
2019-03-16T06:49:21.744Z,16.53
2019-03-16T06:52:08.124Z,7.07
2019-03-16T06:54:54.908Z,9.30
2019-03-16T06:57:41.725Z,10.43
2019-03-16T07:00:28.460Z,16.73
2019-03-16T07:03:14.892Z,17.07
2019-03-16T07:06:03.706Z,21.07
2019-03-16T07:08:50.088Z,12.70
2019-03-16T07:11:36.949Z,18.47
2019-03-16T07:14:23.936Z,18.37
2019-03-16T07:17:11.148Z,15.40
2019-03-16T07:19:58.005Z,19.67
2019-03-16T07:22:47.281Z,28.47
2019-03-16T07:25:39.736Z,20.23
2019-03-16T07:28:26.804Z,21.90
2019-03-16T07:31:13.924Z,34.73
2019-03-16T07:34:01.027Z,29.77
2019-03-16T07:36:47.381Z,24.13
2019-03-16T07:39:37.440Z,28.47
2019-03-16T07:42:24.285Z,38.97
2019-03-16T07:45:11.056Z,32.80
2019-03-16T07:47:57.936Z,24.23
2019-03-16T07:50:44.641Z,29.57
2019-03-16T07:53:31.933Z,34.27
2019-03-16T07:56:19.084Z,30.40
2019-03-16T07:59:06.524Z,31.27
2019-03-16T08:01:53.160Z,35.87
2019-03-16T08:04:43.297Z,38.40
2019-03-16T08:07:32.878Z,32.43
2019-03-16T08:10:19.653Z,30.57
2019-03-16T08:13:06.473Z,28.80
2019-03-16T08:15:53.341Z,26.70
2019-03-16T08:18:39.840Z,22.53
2019-03-16T08:21:31.311Z,20.53
2019-03-16T08:24:17.975Z,19.60
2019-03-16T08:27:08.141Z,19.27
2019-03-16T08:29:55.766Z,21.20
2019-03-16T08:32:42.289Z,19.17
2019-03-16T08:35:29.169Z,19.07
2019-03-16T08:38:16.446Z,21.03
2019-03-16T08:41:03.688Z,17.00
2019-03-16T08:43:52.450Z,26.70
2019-03-16T08:46:39.613Z,18.60
2019-03-16T08:49:25.977Z,18.80
2019-03-16T08:52:15.684Z,15.50
2019-03-16T08:55:04.323Z,16.03
2019-03-16T08:58:05.380Z,14.93
2019-03-16T09:00:42.521Z,14.33
2019-03-16T09:03:29.448Z,20.57
2019-03-16T09:06:16.369Z,15.13
2019-03-16T09:09:06.585Z,19.30
2019-03-16T09:11:54.951Z,25.23
2019-03-16T09:14:42.425Z,22.93
2019-03-16T09:17:31.941Z,25.43
2019-03-16T09:20:18.793Z,20.43
2019-03-16T09:23:06.287Z,21.80
2019-03-16T09:25:55.332Z,23.10
2019-03-16T09:28:45.656Z,20.73
2019-03-16T09:31:35.454Z,22.43
2019-03-16T09:34:25.607Z,20.67
2019-03-16T09:37:12.460Z,17.87
2019-03-16T09:39:59.388Z,20.33
2019-03-16T09:42:46.032Z,16.53
2019-03-16T09:45:32.681Z,17.40
2019-03-16T09:48:20.618Z,13.80
2019-03-16T09:51:07.003Z,13.67
2019-03-16T09:53:53.375Z,10.73
2019-03-16T09:56:41.659Z,12.40
2019-03-16T09:59:28.568Z,10.07
2019-03-16T10:02:15.472Z,9.57
2019-03-16T10:05:04.574Z,11.83
2019-03-16T10:07:53.276Z,9.20
2019-03-16T10:10:44.287Z,12.77
2019-03-16T10:13:30.796Z,9.93
2019-03-16T10:16:17.401Z,8.73
2019-03-16T10:19:04.214Z,10.43
2019-03-16T10:21:52.839Z,9.40
2019-03-16T10:24:41.988Z,10.17
2019-03-16T10:27:30.422Z,9.00
2019-03-16T10:30:16.747Z,12.13
2019-03-16T10:33:06.386Z,10.93
2019-03-16T10:35:53.448Z,8.30
2019-03-16T10:38:40.358Z,11.80
2019-03-16T10:41:28.429Z,8.47
2019-03-16T10:44:15.235Z,14.00
2019-03-16T10:47:01.920Z,8.57
2019-03-16T10:49:48.815Z,10.33
2019-03-16T10:52:36.397Z,10.20
2019-03-16T10:55:22.736Z,7.90
2019-03-16T10:58:09.457Z,9.30
2019-03-16T11:00:59.352Z,7.07
2019-03-16T11:03:46.405Z,9.73
2019-03-16T11:06:32.860Z,6.33
2019-03-16T11:09:19.681Z,8.40
2019-03-16T11:12:07.799Z,7.53
2019-03-16T11:14:54.748Z,5.40
2019-03-16T11:17:41.850Z,6.03
2019-03-16T11:20:28.301Z,7.57
2019-03-16T11:23:15.219Z,6.77
2019-03-16T11:26:03.677Z,8.67
2019-03-16T11:28:50.376Z,8.00
2019-03-16T11:31:37.775Z,6.67
2019-03-16T11:34:29.035Z,6.90
2019-03-16T11:37:15.308Z,6.87
2019-03-16T11:40:02.062Z,6.10
2019-03-16T11:42:49.144Z,9.97
2019-03-16T11:45:37.717Z,7.70
2019-03-16T11:48:24.318Z,5.47
2019-03-16T11:51:11.670Z,5.50
2019-03-16T11:53:58.401Z,5.17
2019-03-16T11:56:45.020Z,5.13
2019-03-16T11:59:31.920Z,5.83
2019-03-16T12:02:21.377Z,6.37
2019-03-16T12:05:08.347Z,10.30
2019-03-16T12:07:57.073Z,8.47
2019-03-16T12:10:43.697Z,4.87
2019-03-16T12:13:31.673Z,4.30
2019-03-16T12:16:18.489Z,7.17
2019-03-16T12:19:04.999Z,5.73
2019-03-16T12:21:51.513Z,4.47
2019-03-16T12:24:41.479Z,8.37
2019-03-16T12:27:30.401Z,6.03
2019-03-16T12:30:16.988Z,5.07
2019-03-16T12:33:04.020Z,4.23
2019-03-16T12:35:50.649Z,5.00
2019-03-16T12:38:40.344Z,4.50
2019-03-16T12:41:26.950Z,5.57
2019-03-16T12:44:14.487Z,4.60
2019-03-16T12:47:01.064Z,6.97
2019-03-16T12:49:47.945Z,6.13
2019-03-16T12:52:38.144Z,5.30
2019-03-16T12:55:25.205Z,4.97
2019-03-16T12:58:16.369Z,5.13
2019-03-16T13:01:03.211Z,5.07
2019-03-16T13:03:58.749Z,5.93
2019-03-16T13:06:49.028Z,4.70
2019-03-16T13:09:36.398Z,5.70
2019-03-16T13:12:26.398Z,4.83
2019-03-16T13:15:17.859Z,4.30
2019-03-16T13:18:04.783Z,4.73
2019-03-16T13:20:51.985Z,4.80
2019-03-16T13:23:38.911Z,3.63
2019-03-16T13:26:25.982Z,3.97
2019-03-16T13:29:13.210Z,4.70
2019-03-16T13:32:02.574Z,5.27
2019-03-16T13:34:49.209Z,6.10
2019-03-16T13:37:38.911Z,6.50
2019-03-16T13:40:25.588Z,5.50
2019-03-16T13:43:11.902Z,6.10
2019-03-16T13:46:01.046Z,4.07
2019-03-16T13:48:47.880Z,3.63
2019-03-16T13:51:34.383Z,3.93
2019-03-16T13:54:24.293Z,4.47
2019-03-16T13:57:13.015Z,4.50
2019-03-16T14:00:11.762Z,4.60
2019-03-16T14:02:55.138Z,6.37
2019-03-16T14:05:42.301Z,6.03
2019-03-16T14:08:29.479Z,3.70
2019-03-16T14:11:18.154Z,3.50
2019-03-16T14:14:04.745Z,6.43
2019-03-16T14:16:51.962Z,6.10
2019-03-16T14:19:38.545Z,5.17
2019-03-16T14:22:26.879Z,5.27
2019-03-16T14:25:13.623Z,4.57
2019-03-16T14:28:04.463Z,5.13
2019-03-16T14:30:53.095Z,4.23
2019-03-16T14:33:48.812Z,6.57
2019-03-16T14:36:36.246Z,5.40
2019-03-16T14:39:23.361Z,5.03
2019-03-16T14:42:11.415Z,4.60
2019-03-16T14:45:01.961Z,3.50
2019-03-16T14:47:50.153Z,4.63
2019-03-16T14:50:41.044Z,3.50
2019-03-16T14:53:28.405Z,5.10
2019-03-16T14:56:16.228Z,4.77
2019-03-16T14:59:13.672Z,6.03
2019-03-16T15:02:20.495Z,4.07
2019-03-16T15:05:07.983Z,3.50
2019-03-16T15:07:57.029Z,4.97
2019-03-16T15:10:44.686Z,3.97
2019-03-16T15:13:34.221Z,3.00
2019-03-16T15:16:21.374Z,3.10
2019-03-16T15:19:08.981Z,2.73
2019-03-16T15:21:55.194Z,2.63
2019-03-16T15:24:42.584Z,2.70
2019-03-16T15:27:33.746Z,2.43
2019-03-16T15:30:20.949Z,6.57
2019-03-16T15:33:07.976Z,2.93
2019-03-16T15:35:54.765Z,2.80
2019-03-16T15:38:44.600Z,3.93
2019-03-16T15:41:31.778Z,2.13
2019-03-16T15:44:18.410Z,3.03
2019-03-16T15:47:04.737Z,2.53
2019-03-16T15:49:54.298Z,3.60
2019-03-16T15:52:42.873Z,3.80
2019-03-16T15:55:29.759Z,2.97
2019-03-16T15:58:16.682Z,3.63
2019-03-16T16:01:05.638Z,5.23
2019-03-16T16:03:52.394Z,3.67
2019-03-16T16:06:38.815Z,3.73
2019-03-16T16:09:27.387Z,2.43
2019-03-16T16:12:16.605Z,2.60
2019-03-16T16:15:09.007Z,2.97
2019-03-16T16:17:55.690Z,3.60
2019-03-16T16:20:46.046Z,3.13
2019-03-16T16:23:35.886Z,2.40
2019-03-16T16:26:26.526Z,3.60
2019-03-16T16:29:16.291Z,3.50
2019-03-16T16:32:06.207Z,3.10
2019-03-16T16:34:52.846Z,4.77
2019-03-16T16:37:40.102Z,5.97
2019-03-16T16:40:26.507Z,2.20
2019-03-16T16:43:14.647Z,4.43
2019-03-16T16:46:01.735Z,2.10
2019-03-16T16:48:48.154Z,2.03
2019-03-16T16:51:35.211Z,2.93
2019-03-16T16:54:24.447Z,4.63
2019-03-16T16:57:11.131Z,3.17
2019-03-16T17:00:01.774Z,2.20
2019-03-16T17:02:48.569Z,2.30
2019-03-16T17:05:35.146Z,2.10
2019-03-16T17:08:23.338Z,3.37
2019-03-16T17:11:11.518Z,3.77
2019-03-16T17:14:01.633Z,2.67
2019-03-16T17:16:50.283Z,2.30
2019-03-16T17:19:37.419Z,2.73
2019-03-16T17:22:24.634Z,3.73
2019-03-16T17:25:14.013Z,1.87
2019-03-16T17:28:03.835Z,5.53
2019-03-16T17:30:50.669Z,3.50
2019-03-16T17:33:38.441Z,1.97
2019-03-16T17:36:27.342Z,1.70
2019-03-16T17:39:16.916Z,4.20
2019-03-16T17:42:04.010Z,2.20
2019-03-16T17:44:53.415Z,2.80
2019-03-16T17:47:44.323Z,5.10
2019-03-16T17:50:30.996Z,4.70
2019-03-16T17:53:20.335Z,6.90
2019-03-16T17:56:07.433Z,6.13
2019-03-16T17:58:54.041Z,2.50
2019-03-16T18:01:40.758Z,3.33
2019-03-16T18:04:43.690Z,2.10
2019-03-16T18:07:41.598Z,4.30
2019-03-16T18:10:28.733Z,3.77
2019-03-16T18:13:17.193Z,5.93
2019-03-16T18:16:03.830Z,2.67
2019-03-16T18:18:50.219Z,3.90
2019-03-16T18:21:37.302Z,5.20
2019-03-16T18:24:24.002Z,2.47
2019-03-16T18:27:10.729Z,2.87
2019-03-16T18:30:00.534Z,2.17
2019-03-16T18:32:58.625Z,4.00
2019-03-16T18:35:50.318Z,2.60
2019-03-16T18:38:37.166Z,3.17
2019-03-16T18:41:25.046Z,2.20
2019-03-16T18:44:11.823Z,2.77
2019-03-16T18:47:01.954Z,7.07
2019-03-16T18:49:53.791Z,7.13
2019-03-16T18:52:44.244Z,3.30
2019-03-16T18:55:33.353Z,3.03
2019-03-16T18:58:36.228Z,4.70
2019-03-16T19:01:20.713Z,7.13
2019-03-16T19:04:10.397Z,4.40
2019-03-16T19:06:59.300Z,5.50
2019-03-16T19:09:47.834Z,5.10
2019-03-16T19:12:41.723Z,4.00
2019-03-16T19:15:28.230Z,6.57
2019-03-16T19:18:14.956Z,3.17
2019-03-16T19:21:07.107Z,4.50
2019-03-16T19:23:56.679Z,7.70
2019-03-16T19:26:47.833Z,9.10
2019-03-16T19:29:34.874Z,5.07
2019-03-16T19:32:33.098Z,3.80
2019-03-16T19:35:09.923Z,3.70
2019-03-16T19:37:56.860Z,5.13
2019-03-16T19:40:43.543Z,4.37
2019-03-16T19:43:33.211Z,5.23
2019-03-16T19:46:23.026Z,6.57
2019-03-16T19:49:09.533Z,3.80
2019-03-16T19:51:56.258Z,3.80
2019-03-16T19:54:43.612Z,6.33
2019-03-16T19:57:30.145Z,5.00
2019-03-16T20:00:17.040Z,4.30
2019-03-16T20:03:04.063Z,6.33
2019-03-16T20:05:50.856Z,5.70
2019-03-16T20:08:40.123Z,5.07
2019-03-16T20:11:26.774Z,4.03
2019-03-16T20:14:13.427Z,6.53
2019-03-16T20:17:01.965Z,5.40
2019-03-16T20:19:51.372Z,6.87
2019-03-16T20:22:39.357Z,6.27
2019-03-16T20:25:26.543Z,6.00
2019-03-16T20:28:13.765Z,4.77
2019-03-16T20:31:06.453Z,4.40
2019-03-16T20:33:53.702Z,5.40
2019-03-16T20:36:42.869Z,4.30
2019-03-16T20:39:33.582Z,5.50
2019-03-16T20:42:21.290Z,8.00
2019-03-16T20:45:14.021Z,4.57
2019-03-16T20:48:02.747Z,5.50
2019-03-16T20:50:49.501Z,4.07
2019-03-16T20:53:36.570Z,5.97
2019-03-16T20:56:23.290Z,6.80
2019-03-16T20:59:09.796Z,5.13
2019-03-16T21:01:59.029Z,9.13
2019-03-16T21:04:45.792Z,6.30
2019-03-16T21:07:32.612Z,8.43
2019-03-16T21:10:20.466Z,5.50
2019-03-16T21:13:07.840Z,7.53
2019-03-16T21:15:54.872Z,7.60
2019-03-16T21:18:42.715Z,9.03
2019-03-16T21:21:29.364Z,6.27
2019-03-16T21:24:16.488Z,6.53
2019-03-16T21:27:04.632Z,6.43
2019-03-16T21:29:54.201Z,5.87
2019-03-16T21:32:43.848Z,6.47
2019-03-16T21:35:30.121Z,4.67
2019-03-16T21:38:16.820Z,5.70
2019-03-16T21:41:06.011Z,5.27
2019-03-16T21:43:52.570Z,4.27
2019-03-16T21:46:43.765Z,6.30
2019-03-16T21:49:29.873Z,6.13
2019-03-16T21:52:17.798Z,6.17
2019-03-16T21:55:09.682Z,6.00
2019-03-16T21:57:59.431Z,8.10
2019-03-16T22:00:48.396Z,7.00
2019-03-16T22:03:42.126Z,4.30
2019-03-16T22:06:23.659Z,4.77
2019-03-16T22:09:13.602Z,4.53
2019-03-16T22:12:00.120Z,6.87
2019-03-16T22:14:48.960Z,5.13
2019-03-16T22:17:36.676Z,4.40
2019-03-16T22:20:23.188Z,5.77
2019-03-16T22:23:09.703Z,7.83
2019-03-16T22:25:56.884Z,6.10
2019-03-16T22:28:46.256Z,7.80
2019-03-16T22:31:33.300Z,7.67
2019-03-16T22:34:20.436Z,5.60
2019-03-16T22:37:07.275Z,5.77
2019-03-16T22:39:56.637Z,6.37
2019-03-16T22:42:43.459Z,5.93
2019-03-16T22:45:32.845Z,8.90
2019-03-16T22:48:21.490Z,7.27
2019-03-16T22:51:08.233Z,6.13
2019-03-16T22:53:56.490Z,9.27
2019-03-16T22:56:43.179Z,7.17
2019-03-16T22:59:30.498Z,3.63
2019-03-16T23:02:20.047Z,3.53
2019-03-16T23:05:08.815Z,4.70
2019-03-16T23:07:56.523Z,6.37
2019-03-16T23:10:45.896Z,3.07
2019-03-16T23:13:32.568Z,5.30
2019-03-16T23:16:19.344Z,6.00
2019-03-16T23:19:05.969Z,3.37
2019-03-16T23:21:54.060Z,4.83
2019-03-16T23:24:46.310Z,6.97
2019-03-16T23:27:33.008Z,5.77
2019-03-16T23:30:23.338Z,4.67
2019-03-16T23:33:10.466Z,3.10
2019-03-16T23:36:00.175Z,4.73
2019-03-16T23:38:50.359Z,3.20
2019-03-16T23:41:36.915Z,7.40
2019-03-16T23:44:23.623Z,4.87
2019-03-16T23:47:11.586Z,3.80
2019-03-16T23:49:58.136Z,2.80
2019-03-16T23:52:46.882Z,3.53
2019-03-16T23:55:35.181Z,3.47
2019-03-16T23:58:23.533Z,3.40
